Crown Point, Indiana
Current Conditions -  °F | °C
As of 6:15 PM on Friday 21 Nov 2014 (Local Time) from KIGQ Reporting Station
Clear Clear  
Wind Chill: 18°   Ceiling: Unl
Heat Index: 28°   Visibility: 10mi
Dew Point:   Wind: 12mph
Humidity: 45%   Direction: 170°S
Pressure: 30.33"   Gusts: NA
Location:  41.42°N, 87.36°W
Report Text: KIGQ 220015Z AUTO 17010KT 10SM CLR M02/M13 A3033 RMK AO2 T10211126
Loading
Personal Weather Stations






























Interactive Weather Map New forecast layout! Learn more

10-Day Weather Forecast

Advertisements
Track Severe Weather on mobile